sensor_id;sensor_type;location;lat;lon;timestamp;P1;durP1;ratioP1;P2;durP2;ratioP2
40755;SDS011;26461;45.630;9.418;2023-04-01T00:01:17;15.35;;;6.38;;
40755;SDS011;26461;45.630;9.418;2023-04-01T00:04:28;15.25;;;7.60;;
40755;SDS011;26461;45.630;9.418;2023-04-01T00:07:38;11.00;;;6.32;;
40755;SDS011;26461;45.630;9.418;2023-04-01T00:10:48;11.43;;;5.97;;
40755;SDS011;26461;45.630;9.418;2023-04-01T00:13:58;16.83;;;8.07;;
40755;SDS011;26461;45.630;9.418;2023-04-01T00:17:09;14.98;;;6.53;;
40755;SDS011;26461;45.630;9.418;2023-04-01T00:20:20;12.93;;;9.00;;
40755;SDS011;26461;45.630;9.418;2023-04-01T00:23:30;15.95;;;7.65;;
40755;SDS011;26461;45.630;9.418;2023-04-01T00:26:36;20.63;;;9.57;;
40755;SDS011;26461;45.630;9.418;2023-04-01T00:29:47;18.58;;;9.27;;
40755;SDS011;26461;45.630;9.418;2023-04-01T00:32:57;11.00;;;6.60;;
40755;SDS011;26461;45.630;9.418;2023-04-01T00:39:21;12.38;;;7.32;;
40755;SDS011;26461;45.630;9.418;2023-04-01T00:42:26;8.57;;;5.80;;
40755;SDS011;26461;45.630;9.418;2023-04-01T00:45:35;12.98;;;5.75;;
40755;SDS011;26461;45.630;9.418;2023-04-01T00:48:48;13.40;;;6.95;;
40755;SDS011;26461;45.630;9.418;2023-04-01T00:52:04;9.40;;;5.50;;
40755;SDS011;26461;45.630;9.418;2023-04-01T00:55:17;11.80;;;5.78;;
40755;SDS011;26461;45.630;9.418;2023-04-01T00:58:29;8.02;;;6.53;;
40755;SDS011;26461;45.630;9.418;2023-04-01T01:01:43;13.10;;;3.97;;
40755;SDS011;26461;45.630;9.418;2023-04-01T01:04:53;9.43;;;5.95;;
40755;SDS011;26461;45.630;9.418;2023-04-01T01:08:14;7.65;;;3.58;;
40755;SDS011;26461;45.630;9.418;2023-04-01T01:14:55;8.38;;;4.22;;
40755;SDS011;26461;45.630;9.418;2023-04-01T01:18:31;7.15;;;3.72;;
40755;SDS011;26461;45.630;9.418;2023-04-01T01:35:51;10.10;;;7.50;;
40755;SDS011;26461;45.630;9.418;2023-04-01T01:38:59;13.70;;;10.20;;
40755;SDS011;26461;45.630;9.418;2023-04-01T01:42:15;8.90;;;5.22;;
40755;SDS011;26461;45.630;9.418;2023-04-01T01:45:27;6.30;;;4.50;;
40755;SDS011;26461;45.630;9.418;2023-04-01T01:48:35;23.83;;;5.30;;
40755;SDS011;26461;45.630;9.418;2023-04-01T01:51:46;10.05;;;6.30;;
40755;SDS011;26461;45.630;9.418;2023-04-01T01:54:57;8.02;;;5.28;;
40755;SDS011;26461;45.630;9.418;2023-04-01T02:01:55;13.20;;;2.60;;
40755;SDS011;26461;45.630;9.418;2023-04-01T02:05:07;12.38;;;5.93;;
40755;SDS011;26461;45.630;9.418;2023-04-01T02:08:21;5.80;;;3.20;;
40755;SDS011;26461;45.630;9.418;2023-04-01T02:11:57;6.45;;;5.25;;
40755;SDS011;26461;45.630;9.418;2023-04-01T02:15:12;8.45;;;3.70;;
40755;SDS011;26461;45.630;9.418;2023-04-01T02:18:26;7.90;;;5.13;;
40755;SDS011;26461;45.630;9.418;2023-04-01T02:21:34;8.00;;;3.85;;
40755;SDS011;26461;45.630;9.418;2023-04-01T02:24:46;21.23;;;6.47;;
40755;SDS011;26461;45.630;9.418;2023-04-01T02:27:57;5.72;;;2.10;;
40755;SDS011;26461;45.630;9.418;2023-04-01T02:31:09;7.07;;;3.20;;
40755;SDS011;26461;45.630;9.418;2023-04-01T02:34:20;7.25;;;4.63;;
40755;SDS011;26461;45.630;9.418;2023-04-01T02:37:27;7.55;;;3.30;;
40755;SDS011;26461;45.630;9.418;2023-04-01T02:40:47;11.80;;;5.70;;
40755;SDS011;26461;45.630;9.418;2023-04-01T02:44:00;8.98;;;2.47;;
40755;SDS011;26461;45.630;9.418;2023-04-01T02:47:10;8.57;;;4.35;;
40755;SDS011;26461;45.630;9.418;2023-04-01T02:50:24;6.03;;;3.15;;
40755;SDS011;26461;45.630;9.418;2023-04-01T02:53:34;5.70;;;3.67;;
40755;SDS011;26461;45.630;9.418;2023-04-01T02:56:44;7.60;;;5.43;;
40755;SDS011;26461;45.630;9.418;2023-04-01T02:59:49;6.35;;;2.20;;
40755;SDS011;26461;45.630;9.418;2023-04-01T03:02:54;7.53;;;5.32;;
40755;SDS011;26461;45.630;9.418;2023-04-01T03:06:06;7.95;;;3.38;;
40755;SDS011;26461;45.630;9.418;2023-04-01T03:09:20;6.82;;;2.97;;
40755;SDS011;26461;45.630;9.418;2023-04-01T03:12:25;7.78;;;3.53;;
40755;SDS011;26461;45.630;9.418;2023-04-01T03:15:30;5.57;;;4.15;;
40755;SDS011;26461;45.630;9.418;2023-04-01T03:18:41;6.70;;;3.45;;
40755;SDS011;26461;45.630;9.418;2023-04-01T03:21:48;8.10;;;4.18;;
40755;SDS011;26461;45.630;9.418;2023-04-01T03:24:58;4.45;;;1.80;;
40755;SDS011;26461;45.630;9.418;2023-04-01T03:28:04;6.60;;;2.80;;
40755;SDS011;26461;45.630;9.418;2023-04-01T03:31:14;7.25;;;5.38;;
40755;SDS011;26461;45.630;9.418;2023-04-01T03:34:26;7.28;;;3.30;;
40755;SDS011;26461;45.630;9.418;2023-04-01T03:37:36;7.72;;;4.63;;
40755;SDS011;26461;45.630;9.418;2023-04-01T03:40:42;10.07;;;3.85;;
40755;SDS011;26461;45.630;9.418;2023-04-01T03:43:53;5.55;;;3.20;;
40755;SDS011;26461;45.630;9.418;2023-04-01T03:46:58;7.53;;;3.47;;
40755;SDS011;26461;45.630;9.418;2023-04-01T03:50:10;4.95;;;3.42;;
40755;SDS011;26461;45.630;9.418;2023-04-01T03:53:15;9.15;;;4.72;;
40755;SDS011;26461;45.630;9.418;2023-04-01T03:56:26;6.43;;;3.55;;
40755;SDS011;26461;45.630;9.418;2023-04-01T03:59:36;3.25;;;2.40;;
40755;SDS011;26461;45.630;9.418;2023-04-01T04:02:46;4.40;;;1.92;;
40755;SDS011;26461;45.630;9.418;2023-04-01T04:05:58;5.43;;;2.75;;
40755;SDS011;26461;45.630;9.418;2023-04-01T04:09:08;12.48;;;3.00;;
40755;SDS011;26461;45.630;9.418;2023-04-01T04:12:13;11.82;;;4.57;;
40755;SDS011;26461;45.630;9.418;2023-04-01T04:15:23;5.00;;;2.13;;
40755;SDS011;26461;45.630;9.418;2023-04-01T04:18:33;8.75;;;3.65;;
40755;SDS011;26461;45.630;9.418;2023-04-01T04:21:39;4.90;;;2.22;;
40755;SDS011;26461;45.630;9.418;2023-04-01T04:24:50;8.65;;;1.30;;
40755;SDS011;26461;45.630;9.418;2023-04-01T04:28:01;11.43;;;3.92;;
40755;SDS011;26461;45.630;9.418;2023-04-01T04:31:13;6.68;;;1.83;;
40755;SDS011;26461;45.630;9.418;2023-04-01T04:34:33;3.15;;;1.25;;
40755;SDS011;26461;45.630;9.418;2023-04-01T04:37:43;6.50;;;2.15;;
40755;SDS011;26461;45.630;9.418;2023-04-01T04:40:48;7.63;;;3.20;;
40755;SDS011;26461;45.630;9.418;2023-04-01T04:43:55;3.45;;;1.60;;
40755;SDS011;26461;45.630;9.418;2023-04-01T04:47:05;3.78;;;1.33;;
40755;SDS011;26461;45.630;9.418;2023-04-01T04:50:10;8.85;;;1.73;;
40755;SDS011;26461;45.630;9.418;2023-04-01T04:53:21;3.65;;;1.20;;
40755;SDS011;26461;45.630;9.418;2023-04-01T04:56:31;4.40;;;1.25;;
40755;SDS011;26461;45.630;9.418;2023-04-01T04:59:47;3.22;;;0.93;;
40755;SDS011;26461;45.630;9.418;2023-04-01T05:03:07;5.30;;;1.85;;
40755;SDS011;26461;45.630;9.418;2023-04-01T05:06:18;4.63;;;1.35;;
40755;SDS011;26461;45.630;9.418;2023-04-01T05:09:29;7.68;;;1.40;;
40755;SDS011;26461;45.630;9.418;2023-04-01T05:12:41;4.15;;;1.20;;
40755;SDS011;26461;45.630;9.418;2023-04-01T05:15:57;6.97;;;2.15;;
40755;SDS011;26461;45.630;9.418;2023-04-01T05:19:07;7.07;;;2.10;;
40755;SDS011;26461;45.630;9.418;2023-04-01T05:22:18;5.07;;;2.45;;
40755;SDS011;26461;45.630;9.418;2023-04-01T05:25:28;3.80;;;1.48;;
40755;SDS011;26461;45.630;9.418;2023-04-01T05:28:38;6.95;;;3.50;;
40755;SDS011;26461;45.630;9.418;2023-04-01T05:31:44;4.85;;;2.63;;
40755;SDS011;26461;45.630;9.418;2023-04-01T05:34:54;11.52;;;3.88;;
40755;SDS011;26461;45.630;9.418;2023-04-01T05:38:04;5.85;;;2.50;;
40755;SDS011;26461;45.630;9.418;2023-04-01T05:41:09;7.35;;;3.80;;
40755;SDS011;26461;45.630;9.418;2023-04-01T05:44:21;7.18;;;3.92;;
40755;SDS011;26461;45.630;9.418;2023-04-01T05:47:46;10.55;;;3.00;;
40755;SDS011;26461;45.630;9.418;2023-04-01T05:50:56;4.68;;;1.83;;
40755;SDS011;26461;45.630;9.418;2023-04-01T05:54:07;5.97;;;2.10;;
40755;SDS011;26461;45.630;9.418;2023-04-01T05:57:12;5.97;;;4.80;;
40755;SDS011;26461;45.630;9.418;2023-04-01T06:00:22;5.60;;;2.30;;
40755;SDS011;26461;45.630;9.418;2023-04-01T06:03:34;4.82;;;3.13;;
40755;SDS011;26461;45.630;9.418;2023-04-01T06:06:44;5.88;;;2.15;;
40755;SDS011;26461;45.630;9.418;2023-04-01T06:09:58;7.25;;;2.78;;
40755;SDS011;26461;45.630;9.418;2023-04-01T06:13:58;3.92;;;2.28;;
40755;SDS011;26461;45.630;9.418;2023-04-01T06:17:39;9.82;;;1.88;;
40755;SDS011;26461;45.630;9.418;2023-04-01T06:20:58;5.95;;;2.55;;
40755;SDS011;26461;45.630;9.418;2023-04-01T06:28:28;6.80;;;1.45;;
40755;SDS011;26461;45.630;9.418;2023-04-01T06:46:58;4.10;;;3.47;;
40755;SDS011;26461;45.630;9.418;2023-04-01T06:51:06;7.50;;;1.42;;
40755;SDS011;26461;45.630;9.418;2023-04-01T06:54:44;4.93;;;1.70;;
40755;SDS011;26461;45.630;9.418;2023-04-01T06:58:37;4.50;;;2.03;;
40755;SDS011;26461;45.630;9.418;2023-04-01T07:04:59;4.85;;;3.13;;
40755;SDS011;26461;45.630;9.418;2023-04-01T07:08:12;9.18;;;4.32;;
40755;SDS011;26461;45.630;9.418;2023-04-01T07:11:35;5.93;;;1.27;;
40755;SDS011;26461;45.630;9.418;2023-04-01T07:15:18;5.45;;;1.92;;
40755;SDS011;26461;45.630;9.418;2023-04-01T07:18:32;5.07;;;1.40;;
40755;SDS011;26461;45.630;9.418;2023-04-01T07:21:48;3.92;;;1.42;;
40755;SDS011;26461;45.630;9.418;2023-04-01T07:25:21;3.72;;;1.92;;
40755;SDS011;26461;45.630;9.418;2023-04-01T07:28:55;5.30;;;1.40;;
40755;SDS011;26461;45.630;9.418;2023-04-01T07:32:39;3.08;;;0.98;;
40755;SDS011;26461;45.630;9.418;2023-04-01T07:36:47;2.55;;;1.00;;
40755;SDS011;26461;45.630;9.418;2023-04-01T07:43:32;14.57;;;2.70;;
40755;SDS011;26461;45.630;9.418;2023-04-01T07:53:46;5.60;;;2.45;;
40755;SDS011;26461;45.630;9.418;2023-04-01T08:00:37;6.10;;;2.45;;
40755;SDS011;26461;45.630;9.418;2023-04-01T08:07:39;6.93;;;2.35;;
40755;SDS011;26461;45.630;9.418;2023-04-01T08:22:29;4.70;;;1.58;;
40755;SDS011;26461;45.630;9.418;2023-04-01T08:29:21;5.25;;;1.65;;
40755;SDS011;26461;45.630;9.418;2023-04-01T08:32:36;11.45;;;2.60;;
40755;SDS011;26461;45.630;9.418;2023-04-01T08:35:59;14.30;;;3.25;;
40755;SDS011;26461;45.630;9.418;2023-04-01T08:39:12;5.47;;;1.00;;
40755;SDS011;26461;45.630;9.418;2023-04-01T09:01:10;4.20;;;2.40;;
40755;SDS011;26461;45.630;9.418;2023-04-01T09:04:26;5.28;;;3.15;;
40755;SDS011;26461;45.630;9.418;2023-04-01T09:11:30;4.40;;;2.10;;
40755;SDS011;26461;45.630;9.418;2023-04-01T09:22:09;9.23;;;3.15;;
40755;SDS011;26461;45.630;9.418;2023-04-01T09:35:49;3.38;;;0.88;;
40755;SDS011;26461;45.630;9.418;2023-04-01T09:39:16;4.32;;;1.13;;
40755;SDS011;26461;45.630;9.418;2023-04-01T09:49:36;2.15;;;0.60;;
40755;SDS011;26461;45.630;9.418;2023-04-01T10:10:48;4.20;;;1.02;;
40755;SDS011;26461;45.630;9.418;2023-04-01T10:21:17;3.25;;;0.50;;
40755;SDS011;26461;45.630;9.418;2023-04-01T10:24:43;4.25;;;0.65;;
40755;SDS011;26461;45.630;9.418;2023-04-01T10:28:04;2.15;;;0.45;;
40755;SDS011;26461;45.630;9.418;2023-04-01T10:35:48;1.80;;;0.30;;
40755;SDS011;26461;45.630;9.418;2023-04-01T10:57:19;2.10;;;0.30;;
40755;SDS011;26461;45.630;9.418;2023-04-01T11:09:07;1.90;;;0.32;;
40755;SDS011;26461;45.630;9.418;2023-04-01T11:23:50;2.10;;;0.30;;
40755;SDS011;26461;45.630;9.418;2023-04-01T11:38:18;2.10;;;0.30;;
40755;SDS011;26461;45.630;9.418;2023-04-01T11:42:10;1.70;;;0.30;;
40755;SDS011;26461;45.630;9.418;2023-04-01T11:45:48;2.28;;;0.30;;
40755;SDS011;26461;45.630;9.418;2023-04-01T12:21:09;4.82;;;0.30;;
40755;SDS011;26461;45.630;9.418;2023-04-01T12:24:56;1.70;;;0.30;;
40755;SDS011;26461;45.630;9.418;2023-04-01T12:45:33;1.90;;;0.30;;
40755;SDS011;26461;45.630;9.418;2023-04-01T12:49:38;1.70;;;0.30;;
40755;SDS011;26461;45.630;9.418;2023-04-01T13:28:20;1.90;;;0.40;;
40755;SDS011;26461;45.630;9.418;2023-04-01T13:42:12;2.20;;;0.30;;
40755;SDS011;26461;45.630;9.418;2023-04-01T13:56:16;1.80;;;0.30;;
40755;SDS011;26461;45.630;9.418;2023-04-01T14:03:22;2.30;;;0.30;;
40755;SDS011;26461;45.630;9.418;2023-04-01T14:06:58;1.70;;;0.30;;
40755;SDS011;26461;45.630;9.418;2023-04-01T14:10:25;2.53;;;0.30;;
40755;SDS011;26461;45.630;9.418;2023-04-01T14:21:09;1.70;;;0.30;;
40755;SDS011;26461;45.630;9.418;2023-04-01T14:51:48;2.42;;;0.50;;
40755;SDS011;26461;45.630;9.418;2023-04-01T14:54:56;1.75;;;0.30;;
40755;SDS011;26461;45.630;9.418;2023-04-01T15:01:35;1.70;;;0.30;;
40755;SDS011;26461;45.630;9.418;2023-04-01T15:08:07;1.67;;;0.30;;
40755;SDS011;26461;45.630;9.418;2023-04-01T15:29:04;1.70;;;0.30;;
40755;SDS011;26461;45.630;9.418;2023-04-01T15:38:52;1.70;;;0.30;;
40755;SDS011;26461;45.630;9.418;2023-04-01T15:45:31;2.00;;;0.40;;
40755;SDS011;26461;45.630;9.418;2023-04-01T15:49:11;2.17;;;0.40;;
40755;SDS011;26461;45.630;9.418;2023-04-01T15:52:39;1.80;;;0.30;;
40755;SDS011;26461;45.630;9.418;2023-04-01T15:56:09;1.80;;;0.30;;
40755;SDS011;26461;45.630;9.418;2023-04-01T15:59:35;2.05;;;0.30;;
40755;SDS011;26461;45.630;9.418;2023-04-01T16:02:48;1.70;;;0.30;;
40755;SDS011;26461;45.630;9.418;2023-04-01T16:09:34;2.42;;;0.40;;
40755;SDS011;26461;45.630;9.418;2023-04-01T16:20:22;2.15;;;0.30;;
40755;SDS011;26461;45.630;9.418;2023-04-01T16:23:51;6.97;;;0.40;;
40755;SDS011;26461;45.630;9.418;2023-04-01T16:27:16;2.58;;;0.40;;
40755;SDS011;26461;45.630;9.418;2023-04-01T16:30:35;2.08;;;0.40;;
40755;SDS011;26461;45.630;9.418;2023-04-01T16:37:37;2.22;;;0.40;;
40755;SDS011;26461;45.630;9.418;2023-04-01T16:44:22;2.33;;;0.70;;
40755;SDS011;26461;45.630;9.418;2023-04-01T16:47:39;1.95;;;0.40;;
40755;SDS011;26461;45.630;9.418;2023-04-01T16:51:00;2.78;;;0.30;;
40755;SDS011;26461;45.630;9.418;2023-04-01T16:57:31;1.90;;;0.52;;
40755;SDS011;26461;45.630;9.418;2023-04-01T17:00:49;4.07;;;0.60;;
40755;SDS011;26461;45.630;9.418;2023-04-01T17:18:27;5.03;;;0.70;;
40755;SDS011;26461;45.630;9.418;2023-04-01T17:26:13;11.20;;;1.90;;
40755;SDS011;26461;45.630;9.418;2023-04-01T17:37:11;6.82;;;1.90;;
40755;SDS011;26461;45.630;9.418;2023-04-01T17:51:02;3.40;;;1.58;;
40755;SDS011;26461;45.630;9.418;2023-04-01T17:57:46;3.97;;;1.00;;
40755;SDS011;26461;45.630;9.418;2023-04-01T18:01:39;7.60;;;1.20;;
40755;SDS011;26461;45.630;9.418;2023-04-01T18:12:19;4.00;;;1.33;;
40755;SDS011;26461;45.630;9.418;2023-04-01T18:15:58;9.82;;;1.73;;
40755;SDS011;26461;45.630;9.418;2023-04-01T18:19:41;7.15;;;1.27;;
40755;SDS011;26461;45.630;9.418;2023-04-01T18:23:21;2.70;;;0.80;;
40755;SDS011;26461;45.630;9.418;2023-04-01T18:26:34;5.78;;;1.48;;
40755;SDS011;26461;45.630;9.418;2023-04-01T18:33:32;8.93;;;1.60;;
40755;SDS011;26461;45.630;9.418;2023-04-01T18:36:53;3.03;;;0.70;;
40755;SDS011;26461;45.630;9.418;2023-04-01T18:47:07;3.00;;;0.70;;
40755;SDS011;26461;45.630;9.418;2023-04-01T18:50:37;7.40;;;1.40;;
40755;SDS011;26461;45.630;9.418;2023-04-01T18:54:02;2.33;;;0.80;;
40755;SDS011;26461;45.630;9.418;2023-04-01T18:57:40;3.53;;;0.45;;
40755;SDS011;26461;45.630;9.418;2023-04-01T19:07:42;4.70;;;0.60;;
40755;SDS011;26461;45.630;9.418;2023-04-01T19:14:48;3.03;;;0.50;;
40755;SDS011;26461;45.630;9.418;2023-04-01T19:18:26;3.58;;;0.50;;
40755;SDS011;26461;45.630;9.418;2023-04-01T19:21:52;2.35;;;0.63;;
40755;SDS011;26461;45.630;9.418;2023-04-01T19:25:15;4.10;;;1.42;;
40755;SDS011;26461;45.630;9.418;2023-04-01T19:28:44;3.85;;;1.10;;
40755;SDS011;26461;45.630;9.418;2023-04-01T19:31:59;6.00;;;1.45;;
40755;SDS011;26461;45.630;9.418;2023-04-01T19:45:39;4.80;;;0.70;;
40755;SDS011;26461;45.630;9.418;2023-04-01T19:52:36;4.70;;;1.45;;
40755;SDS011;26461;45.630;9.418;2023-04-01T19:55:56;6.40;;;2.53;;
40755;SDS011;26461;45.630;9.418;2023-04-01T19:59:33;11.50;;;2.75;;
40755;SDS011;26461;45.630;9.418;2023-04-01T20:02:53;9.88;;;3.10;;
40755;SDS011;26461;45.630;9.418;2023-04-01T20:09:48;5.25;;;2.65;;
40755;SDS011;26461;45.630;9.418;2023-04-01T20:13:21;6.93;;;4.63;;
40755;SDS011;26461;45.630;9.418;2023-04-01T20:16:54;8.00;;;4.30;;
40755;SDS011;26461;45.630;9.418;2023-04-01T20:23:24;7.40;;;5.15;;
40755;SDS011;26461;45.630;9.418;2023-04-01T20:26:46;5.25;;;3.38;;
40755;SDS011;26461;45.630;9.418;2023-04-01T20:40:38;3.75;;;1.67;;
40755;SDS011;26461;45.630;9.418;2023-04-01T20:44:12;3.28;;;0.70;;
40755;SDS011;26461;45.630;9.418;2023-04-01T20:50:51;2.70;;;0.50;;
40755;SDS011;26461;45.630;9.418;2023-04-01T20:54:34;3.30;;;0.82;;
40755;SDS011;26461;45.630;9.418;2023-04-01T21:22:36;3.25;;;0.70;;
40755;SDS011;26461;45.630;9.418;2023-04-01T21:29:08;3.08;;;0.50;;
40755;SDS011;26461;45.630;9.418;2023-04-01T21:36:36;8.15;;;0.70;;
40755;SDS011;26461;45.630;9.418;2023-04-01T21:43:43;3.00;;;1.05;;
40755;SDS011;26461;45.630;9.418;2023-04-01T21:50:59;5.60;;;1.23;;
40755;SDS011;26461;45.630;9.418;2023-04-01T22:05:07;2.00;;;0.40;;
40755;SDS011;26461;45.630;9.418;2023-04-01T22:19:19;10.20;;;0.57;;
40755;SDS011;26461;45.630;9.418;2023-04-01T22:33:07;3.22;;;0.50;;
40755;SDS011;26461;45.630;9.418;2023-04-01T22:40:03;9.73;;;0.52;;
40755;SDS011;26461;45.630;9.418;2023-04-01T22:43:33;2.00;;;0.40;;
40755;SDS011;26461;45.630;9.418;2023-04-01T22:46:48;3.05;;;0.45;;
40755;SDS011;26461;45.630;9.418;2023-04-01T22:50:18;3.17;;;0.40;;
40755;SDS011;26461;45.630;9.418;2023-04-01T22:53:47;3.65;;;1.40;;
40755;SDS011;26461;45.630;9.418;2023-04-01T22:57:38;2.67;;;0.45;;
40755;SDS011;26461;45.630;9.418;2023-04-01T23:00:56;3.38;;;0.40;;
40755;SDS011;26461;45.630;9.418;2023-04-01T23:04:11;1.75;;;0.30;;
40755;SDS011;26461;45.630;9.418;2023-04-01T23:07:41;3.60;;;1.08;;
40755;SDS011;26461;45.630;9.418;2023-04-01T23:11:14;1.80;;;0.40;;
40755;SDS011;26461;45.630;9.418;2023-04-01T23:14:43;2.55;;;0.50;;
40755;SDS011;26461;45.630;9.418;2023-04-01T23:21:21;2.92;;;0.63;;
40755;SDS011;26461;45.630;9.418;2023-04-01T23:24:44;3.95;;;0.50;;
40755;SDS011;26461;45.630;9.418;2023-04-01T23:31:27;2.95;;;0.50;;
40755;SDS011;26461;45.630;9.418;2023-04-01T23:34:48;2.88;;;0.50;;
40755;SDS011;26461;45.630;9.418;2023-04-01T23:38:00;2.53;;;0.70;;
40755;SDS011;26461;45.630;9.418;2023-04-01T23:41:17;2.10;;;0.50;;
40755;SDS011;26461;45.630;9.418;2023-04-01T23:44:32;3.78;;;0.47;;
40755;SDS011;26461;45.630;9.418;2023-04-01T23:47:38;4.45;;;0.88;;
40755;SDS011;26461;45.630;9.418;2023-04-01T23:50:50;4.05;;;0.60;;
40755;SDS011;26461;45.630;9.418;2023-04-01T23:54:23;1.98;;;0.35;;
40755;SDS011;26461;45.630;9.418;2023-04-01T23:57:42;4.25;;;0.40;;
